Changbai, China
Current Conditions -  °F | °C
As of 4:00 AM on Wednesday 22 Oct 2014 (Local Time) from KQEI Reporting Station
Broken Clouds Broken Clouds  
Wind Chill: 48°   Ceiling: 2200
Heat Index: 48°   Visibility: 6mi
Dew Point: 45°   Wind: 1mph
Humidity: 87%   Direction: 110°ESE
Pressure: 30.14"   Gusts: NA
Location:  41.43°N, 128.14°E
Report Text: KQEI 212000Z AUTO 11001KT 9999 BKN022 09/07 A3014 RMK A02 TSNO
Loading
Personal Weather Stations






























Interactive Weather Map
Tropical Storm Tracking
New forecast layout! Learn more

10-Day Weather Forecast

Advertisements
Track Severe Weather on mobile